Time;durP1;ratioP1;P1;durP2;ratioP2;P2;SDS_P1;SDS_P2;PMS_P1;PMS_P2;Temp;Humidity;BMP_temperature;BMP_pressure;BME280_temperature;BME280_humidity;BME280_pressure;Samples;Min_cycle;Max_cycle;Signal;HPM_P1;HPM_P2
2023/06/15 00:00:26;;;;;;;5.18;1.95;;;;;;;;;;5019236;28;20048;-69
2023/06/15 00:02:52;;;;;;;5.68;2.17;;;;;;;;;;5019978;28;20145;-69
2023/06/15 00:05:18;;;;;;;6.20;2.00;;;;;;;;;;5016283;28;20476;-69
2023/06/15 00:07:44;;;;;;;4.93;1.90;;;;;;;;;;4998901;28;20021;-70
2023/06/15 00:10:11;;;;;;;6.30;2.40;;;;;;;;;;5015755;28;20484;-69
2023/06/15 00:12:37;;;;;;;6.75;2.30;;;;;;;;;;5020397;28;20033;-68
2023/06/15 00:15:04;;;;;;;5.35;2.10;;;;;;;;;;5015367;28;20108;-66
2023/06/15 00:17:30;;;;;;;7.32;2.65;;;;;;;;;;5004069;28;20024;-66
2023/06/15 00:20:00;;;;;;;6.38;2.15;;;;;;;;;;5017700;28;20328;-67
2023/06/15 00:22:28;;;;;;;5.57;2.03;;;;;;;;;;5000300;28;20517;-67
2023/06/15 00:24:55;;;;;;;6.20;2.08;;;;;;;;;;5019071;28;20060;-64
2023/06/15 00:27:21;;;;;;;5.38;1.90;;;;;;;;;;5017636;28;20036;-68
2023/06/15 00:29:47;;;;;;;7.57;2.20;;;;;;;;;;5019292;28;20056;-65
2023/06/15 00:32:14;;;;;;;5.88;2.05;;;;;;;;;;5012095;28;20063;-69
2023/06/15 00:34:40;;;;;;;5.38;2.15;;;;;;;;;;5019080;28;20087;-65
2023/06/15 00:37:06;;;;;;;5.55;2.08;;;;;;;;;;5001357;28;20036;-67
2023/06/15 00:39:32;;;;;;;5.93;2.22;;;;;;;;;;5018026;28;20040;-67
2023/06/15 00:41:58;;;;;;;5.57;1.90;;;;;;;;;;4995944;28;20056;-67
2023/06/15 00:44:24;;;;;;;5.07;1.90;;;;;;;;;;5019283;28;20039;-67
2023/06/15 00:46:51;;;;;;;5.97;2.30;;;;;;;;;;5003903;28;20120;-66
2023/06/15 00:49:17;;;;;;;5.72;1.92;;;;;;;;;;5012744;28;20312;-67
2023/06/15 00:51:43;;;;;;;5.15;2.00;;;;;;;;;;5015768;28;20040;-67
2023/06/15 00:54:12;;;;;;;5.25;2.28;;;;;;;;;;5015817;28;20033;-67
2023/06/15 00:56:38;;;;;;;6.93;2.10;;;;;;;;;;5002090;28;20382;-67
2023/06/15 00:59:05;;;;;;;6.25;2.15;;;;;;;;;;5003660;28;20033;-67
2023/06/15 01:01:31;;;;;;;5.72;2.00;;;;;;;;;;5017222;28;20148;-68
2023/06/15 01:03:59;;;;;;;4.95;2.10;;;;;;;;;;4997036;28;20418;-68
2023/06/15 01:06:31;;;;;;;5.35;2.10;;;;;;;;;;5016411;28;20036;-67
2023/06/15 01:09:01;;;;;;;4.93;1.95;;;;;;;;;;4999784;28;20144;-68
2023/06/15 01:11:28;;;;;;;4.15;1.80;;;;;;;;;;4999859;28;20388;-67
2023/06/15 01:13:54;;;;;;;5.25;2.17;;;;;;;;;;5004354;28;20440;-68
2023/06/15 01:16:23;;;;;;;6.90;2.20;;;;;;;;;;4997468;28;20049;-67
2023/06/15 01:18:56;;;;;;;5.40;2.05;;;;;;;;;;5002050;28;20139;-67
2023/06/15 01:21:24;;;;;;;5.90;2.17;;;;;;;;;;5015797;28;20024;-68
2023/06/15 01:23:52;;;;;;;6.38;2.28;;;;;;;;;;4998591;28;20368;-66
2023/06/15 01:26:20;;;;;;;5.68;2.35;;;;;;;;;;5013945;28;20021;-67
2023/06/15 01:28:49;;;;;;;6.07;2.13;;;;;;;;;;5019818;28;20049;-68
2023/06/15 01:31:16;;;;;;;4.72;2.00;;;;;;;;;;5014806;28;20028;-67
2023/06/15 01:33:45;;;;;;;5.25;2.08;;;;;;;;;;5017629;28;20029;-67
2023/06/15 01:36:11;;;;;;;5.78;2.25;;;;;;;;;;5015393;28;20472;-67
2023/06/15 01:38:38;;;;;;;5.80;1.88;;;;;;;;;;5018164;28;20071;-67
2023/06/15 01:41:05;;;;;;;5.32;2.20;;;;;;;;;;5013868;28;20067;-68
2023/06/15 01:43:32;;;;;;;5.50;2.15;;;;;;;;;;4997687;28;20064;-67
2023/06/15 01:45:59;;;;;;;5.68;2.00;;;;;;;;;;5013359;28;20036;-68
2023/06/15 01:48:25;;;;;;;5.85;2.42;;;;;;;;;;4995444;28;20040;-68
2023/06/15 01:50:52;;;;;;;5.85;2.35;;;;;;;;;;5015552;28;20166;-68
2023/06/15 01:53:18;;;;;;;5.57;2.08;;;;;;;;;;5009030;28;20143;-68
2023/06/15 01:55:44;;;;;;;5.22;2.03;;;;;;;;;;4995420;28;20436;-67
2023/06/15 01:58:17;;;;;;;7.93;3.20;;;;;;;;;;5012794;28;20095;-70
2023/06/15 02:00:43;;;;;;;6.97;3.00;;;;;;;;;;5016286;28;20419;-67
2023/06/15 02:03:11;;;;;;;6.35;2.30;;;;;;;;;;4994347;28;20494;-67
2023/06/15 02:05:39;;;;;;;6.40;2.30;;;;;;;;;;5000223;28;20913;-68
2023/06/15 02:08:06;;;;;;;5.57;2.30;;;;;;;;;;5011957;28;20075;-68
2023/06/15 02:10:32;;;;;;;4.88;2.10;;;;;;;;;;5017366;28;20028;-68
2023/06/15 02:12:58;;;;;;;6.13;2.08;;;;;;;;;;4995641;28;20449;-66
2023/06/15 02:15:24;;;;;;;5.00;1.95;;;;;;;;;;5018185;28;20317;-70
2023/06/15 02:18:01;;;;;;;7.00;2.33;;;;;;;;;;4999744;28;20024;-68
2023/06/15 02:20:28;;;;;;;5.65;2.45;;;;;;;;;;5020365;28;20482;-68
2023/06/15 02:22:57;;;;;;;5.38;2.25;;;;;;;;;;4998107;28;20585;-68
2023/06/15 02:25:23;;;;;;;5.82;2.38;;;;;;;;;;5017032;28;20451;-67
2023/06/15 02:27:49;;;;;;;6.25;2.05;;;;;;;;;;5014898;28;20493;-67
2023/06/15 02:30:15;;;;;;;6.28;2.20;;;;;;;;;;4993197;28;20542;-66
2023/06/15 02:32:42;;;;;;;6.72;2.30;;;;;;;;;;4996342;28;21007;-68
2023/06/15 02:35:10;;;;;;;6.63;2.60;;;;;;;;;;5009151;28;20025;-67
2023/06/15 02:37:36;;;;;;;6.60;2.45;;;;;;;;;;5000335;28;20060;-69
2023/06/15 02:40:06;;;;;;;6.05;2.15;;;;;;;;;;4995222;28;20401;-67
2023/06/15 02:42:33;;;;;;;5.93;2.47;;;;;;;;;;5017526;28;20230;-68
2023/06/15 02:44:59;;;;;;;6.03;2.58;;;;;;;;;;5011506;28;20037;-68
2023/06/15 02:47:25;;;;;;;7.82;2.60;;;;;;;;;;5012366;28;20036;-67
2023/06/15 02:49:52;;;;;;;7.20;2.58;;;;;;;;;;5016479;28;20340;-67
2023/06/15 02:52:18;;;;;;;6.30;2.58;;;;;;;;;;4996197;28;20045;-67
2023/06/15 02:54:44;;;;;;;7.45;2.85;;;;;;;;;;5014593;28;20021;-66
2023/06/15 02:57:10;;;;;;;5.32;2.40;;;;;;;;;;4997042;28;20164;-67
2023/06/15 02:59:37;;;;;;;9.65;2.83;;;;;;;;;;4997189;28;20049;-68
2023/06/15 03:02:08;;;;;;;7.15;2.85;;;;;;;;;;5006605;28;20045;-68
2023/06/15 03:04:44;;;;;;;7.63;3.28;;;;;;;;;;4995425;28;20095;-68
2023/06/15 03:07:11;;;;;;;7.73;2.97;;;;;;;;;;4994963;28;20577;-67
2023/06/15 03:09:37;;;;;;;7.30;3.25;;;;;;;;;;4994958;28;20855;-67
2023/06/15 03:12:03;;;;;;;7.20;3.10;;;;;;;;;;4992573;28;20110;-68
2023/06/15 03:14:30;;;;;;;6.25;2.75;;;;;;;;;;5011621;28;20265;-68
2023/06/15 03:16:56;;;;;;;5.82;2.50;;;;;;;;;;4991773;28;20066;-68
2023/06/15 03:19:22;;;;;;;7.70;2.88;;;;;;;;;;5011492;28;20362;-67
2023/06/15 03:21:49;;;;;;;6.18;2.70;;;;;;;;;;5015074;28;20029;-67
2023/06/15 03:24:16;;;;;;;7.47;2.65;;;;;;;;;;5010575;28;21891;-67
2023/06/15 03:26:43;;;;;;;9.77;3.20;;;;;;;;;;5013483;28;20025;-67
2023/06/15 03:29:09;;;;;;;7.38;2.75;;;;;;;;;;4996452;28;20840;-67
2023/06/15 03:31:40;;;;;;;8.45;3.00;;;;;;;;;;5000784;28;20025;-66
2023/06/15 03:34:07;;;;;;;8.35;3.35;;;;;;;;;;5014637;28;20120;-67
2023/06/15 03:36:35;;;;;;;7.40;2.90;;;;;;;;;;5019311;28;20736;-68
2023/06/15 03:39:02;;;;;;;7.97;2.50;;;;;;;;;;5014414;28;20033;-68
2023/06/15 03:41:30;;;;;;;7.80;2.70;;;;;;;;;;5018833;28;20475;-66
2023/06/15 03:43:56;;;;;;;7.30;3.05;;;;;;;;;;5000849;28;20503;-67
2023/06/15 03:46:22;;;;;;;7.60;3.20;;;;;;;;;;5017369;28;20075;-67
2023/06/15 03:48:51;;;;;;;9.00;3.50;;;;;;;;;;5017474;28;20033;-67
2023/06/15 03:51:17;;;;;;;7.60;3.20;;;;;;;;;;5013158;28;20063;-67
2023/06/15 03:53:44;;;;;;;7.90;3.30;;;;;;;;;;5015081;28;20017;-68
2023/06/15 03:56:10;;;;;;;7.05;3.28;;;;;;;;;;5015346;28;20658;-68
2023/06/15 03:58:36;;;;;;;8.23;3.20;;;;;;;;;;5017144;28;20036;-67
2023/06/15 04:01:04;;;;;;;7.72;3.45;;;;;;;;;;5018088;28;20052;-67
2023/06/15 04:03:34;;;;;;;9.55;3.83;;;;;;;;;;5015276;28;20377;-68
2023/06/15 04:06:02;;;;;;;8.05;2.90;;;;;;;;;;5014067;28;20357;-68
2023/06/15 04:08:29;;;;;;;7.22;3.22;;;;;;;;;;5003638;28;20132;-68
2023/06/15 04:10:56;;;;;;;8.65;3.20;;;;;;;;;;5005445;28;20418;-68
2023/06/15 04:13:23;;;;;;;10.02;3.45;;;;;;;;;;5016380;28;20025;-68
2023/06/15 04:15:50;;;;;;;12.88;5.00;;;;;;;;;;5000333;28;20140;-67
2023/06/15 04:18:17;;;;;;;10.07;4.75;;;;;;;;;;4994676;28;20264;-68
2023/06/15 04:20:44;;;;;;;10.35;4.65;;;;;;;;;;5016708;28;20490;-68
2023/06/15 04:23:10;;;;;;;10.05;4.95;;;;;;;;;;4999304;28;20059;-68
2023/06/15 04:25:37;;;;;;;10.20;4.53;;;;;;;;;;4998513;28;20472;-68
2023/06/15 04:28:10;;;;;;;9.27;4.10;;;;;;;;;;5016218;28;21355;-68
2023/06/15 04:30:37;;;;;;;8.07;3.70;;;;;;;;;;5018715;28;20035;-68
2023/06/15 04:33:04;;;;;;;9.68;4.00;;;;;;;;;;5013377;28;20029;-68
2023/06/15 04:35:31;;;;;;;7.80;3.28;;;;;;;;;;5001284;28;20110;-68
2023/06/15 04:37:58;;;;;;;8.40;3.38;;;;;;;;;;5014049;28;20387;-68
2023/06/15 04:40:25;;;;;;;9.90;4.20;;;;;;;;;;5019605;28;20464;-68
2023/06/15 04:42:53;;;;;;;9.85;4.40;;;;;;;;;;5017410;28;20370;-68
2023/06/15 04:45:19;;;;;;;12.40;4.65;;;;;;;;;;5000155;28;20276;-68
2023/06/15 04:47:47;;;;;;;10.88;4.47;;;;;;;;;;4999949;28;20025;-67
2023/06/15 04:50:13;;;;;;;8.65;3.83;;;;;;;;;;5015633;28;20873;-68
2023/06/15 04:52:42;;;;;;;8.05;3.72;;;;;;;;;;5017693;28;20487;-68
2023/06/15 04:55:11;;;;;;;8.77;3.85;;;;;;;;;;4996049;28;20074;-68
2023/06/15 04:57:38;;;;;;;9.15;4.05;;;;;;;;;;5016609;28;20025;-68
2023/06/15 05:00:06;;;;;;;9.68;4.07;;;;;;;;;;4996636;28;20640;-67
2023/06/15 05:02:33;;;;;;;10.18;4.22;;;;;;;;;;5017599;28;20056;-67
2023/06/15 05:04:59;;;;;;;10.50;4.75;;;;;;;;;;5015483;28;20501;-67
2023/06/15 05:07:25;;;;;;;11.35;4.47;;;;;;;;;;4998444;28;20355;-68
2023/06/15 05:09:51;;;;;;;9.32;4.65;;;;;;;;;;5001023;28;20581;-67
2023/06/15 05:12:17;;;;;;;11.68;4.68;;;;;;;;;;5016686;28;20080;-67
2023/06/15 05:14:43;;;;;;;9.88;4.40;;;;;;;;;;5000507;28;20033;-68
2023/06/15 05:17:10;;;;;;;8.93;3.50;;;;;;;;;;5015557;28;20439;-68
2023/06/15 05:19:36;;;;;;;9.73;4.90;;;;;;;;;;5018348;28;20578;-68
2023/06/15 05:22:02;;;;;;;8.43;4.50;;;;;;;;;;4996083;28;20110;-68
2023/06/15 05:24:28;;;;;;;8.90;4.22;;;;;;;;;;5003187;28;20090;-68
2023/06/15 05:26:56;;;;;;;9.63;3.97;;;;;;;;;;5019655;28;20656;-68
2023/06/15 05:29:22;;;;;;;9.38;3.80;;;;;;;;;;5020994;28;20061;-68
2023/06/15 05:31:48;;;;;;;9.55;4.68;;;;;;;;;;5018886;28;20114;-68
2023/06/15 05:34:14;;;;;;;11.60;5.32;;;;;;;;;;4998024;28;20033;-69
2023/06/15 05:36:41;;;;;;;10.70;4.32;;;;;;;;;;5019385;28;20108;-68
2023/06/15 05:39:07;;;;;;;9.27;4.25;;;;;;;;;;5010265;28;20071;-68
2023/06/15 05:41:33;;;;;;;11.40;3.85;;;;;;;;;;5017153;28;20025;-68
2023/06/15 05:44:00;;;;;;;9.95;4.85;;;;;;;;;;5016266;28;20037;-69
2023/06/15 05:46:26;;;;;;;12.70;5.72;;;;;;;;;;5017284;28;20029;-68
2023/06/15 05:48:52;;;;;;;16.25;6.10;;;;;;;;;;5018820;28;20040;-66
2023/06/15 05:51:18;;;;;;;12.18;5.95;;;;;;;;;;4996006;28;20109;-68
2023/06/15 05:53:44;;;;;;;12.52;6.32;;;;;;;;;;4998183;28;20082;-67
2023/06/15 05:56:11;;;;;;;15.50;6.18;;;;;;;;;;4998490;28;20024;-67
2023/06/15 05:58:38;;;;;;;13.18;5.85;;;;;;;;;;5016833;28;20479;-68
2023/06/15 06:01:04;;;;;;;15.05;6.40;;;;;;;;;;5016720;28;20119;-68
2023/06/15 06:03:31;;;;;;;13.73;6.22;;;;;;;;;;5016207;28;20080;-68
2023/06/15 06:05:57;;;;;;;17.23;5.70;;;;;;;;;;5014535;28;20473;-67
2023/06/15 06:08:23;;;;;;;12.43;6.38;;;;;;;;;;5000100;28;20486;-68
2023/06/15 06:10:50;;;;;;;14.23;6.70;;;;;;;;;;5016117;28;20143;-68
2023/06/15 06:13:16;;;;;;;13.90;6.82;;;;;;;;;;4992697;28;23204;-67
2023/06/15 06:15:42;;;;;;;14.10;6.93;;;;;;;;;;4999524;28;20029;-68
2023/06/15 06:18:08;;;;;;;13.07;5.28;;;;;;;;;;5013135;28;20122;-69
2023/06/15 06:20:35;;;;;;;11.02;5.30;;;;;;;;;;5016662;28;20028;-68
2023/06/15 06:23:03;;;;;;;11.73;4.70;;;;;;;;;;4997474;28;20040;-68
2023/06/15 06:25:29;;;;;;;15.90;4.60;;;;;;;;;;5018759;28;20450;-68
2023/06/15 06:27:55;;;;;;;13.98;5.00;;;;;;;;;;5001572;28;20033;-68
2023/06/15 06:30:21;;;;;;;16.48;6.57;;;;;;;;;;5017217;28;20439;-67
2023/06/15 06:32:48;;;;;;;9.73;3.80;;;;;;;;;;5016257;28;20380;-66
2023/06/15 06:35:14;;;;;;;13.63;4.60;;;;;;;;;;5010118;28;20135;-68
2023/06/15 06:37:40;;;;;;;10.75;4.05;;;;;;;;;;5001916;28;20341;-67
2023/06/15 06:40:07;;;;;;;8.15;2.70;;;;;;;;;;5015147;28;20582;-68
2023/06/15 06:42:34;;;;;;;8.65;3.30;;;;;;;;;;5004464;28;20120;-68
2023/06/15 06:45:00;;;;;;;10.98;3.53;;;;;;;;;;4995286;28;20029;-68
2023/06/15 06:47:26;;;;;;;12.40;3.53;;;;;;;;;;4996936;28;20061;-68
2023/06/15 06:49:52;;;;;;;13.90;3.83;;;;;;;;;;5013871;28;20061;-68
2023/06/15 06:52:18;;;;;;;8.48;3.08;;;;;;;;;;4992217;28;20041;-67
2023/06/15 06:54:44;;;;;;;7.50;2.75;;;;;;;;;;4994409;28;20063;-67
2023/06/15 06:57:12;;;;;;;11.55;3.20;;;;;;;;;;4994535;28;20029;-68
2023/06/15 06:59:38;;;;;;;8.40;3.10;;;;;;;;;;4996154;28;20029;-66
2023/06/15 07:02:04;;;;;;;8.13;2.50;;;;;;;;;;4992673;28;20068;-68
2023/06/15 07:04:30;;;;;;;8.45;2.88;;;;;;;;;;5013822;28;20411;-69
2023/06/15 07:06:56;;;;;;;8.27;2.75;;;;;;;;;;4997116;28;20407;-68
2023/06/15 07:09:22;;;;;;;9.30;2.40;;;;;;;;;;4997637;28;20045;-68
2023/06/15 07:11:48;;;;;;;11.25;2.55;;;;;;;;;;5000574;28;20043;-68
2023/06/15 07:14:14;;;;;;;9.70;2.75;;;;;;;;;;5008513;28;20267;-68
2023/06/15 07:16:40;;;;;;;9.18;2.95;;;;;;;;;;5017393;28;20036;-70
2023/06/15 07:19:07;;;;;;;6.07;2.55;;;;;;;;;;5012510;28;20464;-68
2023/06/15 07:21:33;;;;;;;7.95;2.70;;;;;;;;;;4998689;28;20068;-66
2023/06/15 07:23:59;;;;;;;7.38;2.38;;;;;;;;;;4994005;28;20088;-67
2023/06/15 07:26:25;;;;;;;8.25;2.35;;;;;;;;;;5014425;28;20065;-67
2023/06/15 07:28:51;;;;;;;9.40;2.60;;;;;;;;;;5011487;28;20482;-68
2023/06/15 07:31:17;;;;;;;9.98;2.60;;;;;;;;;;5009089;28;20065;-67
2023/06/15 07:33:44;;;;;;;8.07;2.50;;;;;;;;;;5016928;28;20688;-66
2023/06/15 07:36:10;;;;;;;7.75;2.30;;;;;;;;;;4996144;28;20147;-67
2023/06/15 07:38:37;;;;;;;7.25;2.58;;;;;;;;;;5002561;28;20044;-67
2023/06/15 07:41:03;;;;;;;7.43;2.70;;;;;;;;;;5013299;28;20044;-70
2023/06/15 07:43:29;;;;;;;8.02;2.80;;;;;;;;;;5015576;28;20026;-68
2023/06/15 07:45:56;;;;;;;8.45;2.72;;;;;;;;;;5015956;28;20041;-69
2023/06/15 07:48:22;;;;;;;5.85;2.20;;;;;;;;;;5017131;28;20029;-67
2023/06/15 07:50:48;;;;;;;8.38;2.70;;;;;;;;;;5014700;28;20048;-67
2023/06/15 07:53:15;;;;;;;8.52;2.85;;;;;;;;;;5011842;28;20431;-68
2023/06/15 07:55:43;;;;;;;6.35;2.50;;;;;;;;;;5000592;28;20033;-68
2023/06/15 07:58:10;;;;;;;8.07;2.97;;;;;;;;;;5010757;28;20854;-68
2023/06/15 08:00:36;;;;;;;7.10;2.85;;;;;;;;;;5016996;28;20040;-67
2023/06/15 08:03:02;;;;;;;7.45;2.50;;;;;;;;;;5011316;28;20425;-67
2023/06/15 08:05:28;;;;;;;8.13;2.53;;;;;;;;;;5015059;28;20075;-68
2023/06/15 08:07:54;;;;;;;5.80;2.38;;;;;;;;;;5016020;28;20021;-67
2023/06/15 08:10:21;;;;;;;6.93;2.45;;;;;;;;;;5013161;28;20139;-68
2023/06/15 08:12:47;;;;;;;7.10;3.00;;;;;;;;;;5017668;28;20031;-67
2023/06/15 08:15:13;;;;;;;17.17;3.38;;;;;;;;;;5014207;28;20033;-67
2023/06/15 08:17:39;;;;;;;15.20;3.67;;;;;;;;;;5017069;28;20032;-67
2023/06/15 08:20:09;;;;;;;13.43;3.50;;;;;;;;;;5016190;28;20033;-67
2023/06/15 08:22:36;;;;;;;7.40;3.17;;;;;;;;;;5016331;28;20521;-68
2023/06/15 08:25:02;;;;;;;8.07;2.70;;;;;;;;;;4998458;28;20521;-67
2023/06/15 08:27:29;;;;;;;8.95;2.60;;;;;;;;;;5018984;28;20028;-68
2023/06/15 08:29:57;;;;;;;6.80;2.75;;;;;;;;;;5020110;28;20775;-67
2023/06/15 08:32:23;;;;;;;7.78;2.50;;;;;;;;;;5002519;28;20049;-67
2023/06/15 08:34:49;;;;;;;6.72;2.50;;;;;;;;;;5001156;28;20029;-68
2023/06/15 08:37:15;;;;;;;8.32;2.53;;;;;;;;;;5015977;28;20055;-67
2023/06/15 08:39:41;;;;;;;13.35;3.50;;;;;;;;;;5019173;28;20458;-67
2023/06/15 08:42:08;;;;;;;18.77;4.50;;;;;;;;;;5015210;28;21072;-67
2023/06/15 08:44:34;;;;;;;11.27;3.22;;;;;;;;;;5019924;28;20243;-67
2023/06/15 08:47:01;;;;;;;10.95;2.70;;;;;;;;;;5015203;28;20531;-66
2023/06/15 08:49:28;;;;;;;9.18;2.50;;;;;;;;;;5017903;28;20312;-66
2023/06/15 08:51:55;;;;;;;7.00;2.10;;;;;;;;;;5020975;28;20434;-68
2023/06/15 08:54:25;;;;;;;7.28;2.60;;;;;;;;;;5015668;28;20494;-67
2023/06/15 08:56:51;;;;;;;8.75;2.50;;;;;;;;;;5019140;28;20017;-67
2023/06/15 08:59:17;;;;;;;6.70;2.50;;;;;;;;;;5000567;28;20167;-67
2023/06/15 09:01:44;;;;;;;7.05;2.45;;;;;;;;;;5016232;28;20029;-67
2023/06/15 09:04:10;;;;;;;7.50;2.10;;;;;;;;;;5015307;28;20562;-66
2023/06/15 09:06:36;;;;;;;5.72;1.92;;;;;;;;;;5020834;28;20029;-67
2023/06/15 09:09:03;;;;;;;7.85;2.47;;;;;;;;;;4999501;28;20111;-65
2023/06/15 09:11:29;;;;;;;5.43;2.20;;;;;;;;;;4998233;28;20484;-65
2023/06/15 09:13:55;;;;;;;9.27;2.30;;;;;;;;;;5016850;28;20075;-66
2023/06/15 09:16:22;;;;;;;7.47;2.42;;;;;;;;;;5003045;28;20372;-66
2023/06/15 09:18:51;;;;;;;6.10;2.10;;;;;;;;;;5016784;28;20041;-66
2023/06/15 09:21:18;;;;;;;5.10;1.90;;;;;;;;;;5014610;28;20460;-68
2023/06/15 09:23:45;;;;;;;6.03;2.10;;;;;;;;;;5020082;28;21580;-66
2023/06/15 09:26:41;;;;;;;6.13;2.17;;;;;;;;;;5014778;28;20033;-65
2023/06/15 09:29:11;;;;;;;5.55;2.22;;;;;;;;;;5003849;28;20041;-66
2023/06/15 09:31:38;;;;;;;6.10;1.70;;;;;;;;;;5015419;28;20086;-66
2023/06/15 09:34:05;;;;;;;6.80;2.25;;;;;;;;;;4998080;28;20064;-67
2023/06/15 09:36:38;;;;;;;4.63;2.00;;;;;;;;;;5017217;28;20063;-68
2023/06/15 09:39:04;;;;;;;5.10;2.03;;;;;;;;;;5016670;28;20025;-68
2023/06/15 09:41:31;;;;;;;6.93;2.20;;;;;;;;;;5015872;28;20376;-64
2023/06/15 09:44:00;;;;;;;4.35;1.80;;;;;;;;;;4999692;28;20438;-66
2023/06/15 09:46:30;;;;;;;5.70;1.83;;;;;;;;;;5018423;28;20033;-65
2023/06/15 09:48:56;;;;;;;5.32;2.10;;;;;;;;;;5015294;28;20103;-64
2023/06/15 09:51:30;;;;;;;7.53;2.08;;;;;;;;;;5004344;28;20558;-65
2023/06/15 09:53:57;;;;;;;6.28;2.00;;;;;;;;;;5014172;28;20599;-66
2023/06/15 09:56:25;;;;;;;6.20;2.08;;;;;;;;;;5019262;28;20033;-64
2023/06/15 09:58:51;;;;;;;6.78;1.88;;;;;;;;;;5000911;28;20135;-66
2023/06/15 10:01:18;;;;;;;5.45;2.10;;;;;;;;;;5010997;28;20052;-64
2023/06/15 10:03:45;;;;;;;5.93;2.10;;;;;;;;;;5018151;28;20099;-67
2023/06/15 10:06:16;;;;;;;6.18;2.20;;;;;;;;;;5014354;28;20032;-65
2023/06/15 10:08:44;;;;;;;5.55;1.75;;;;;;;;;;5019354;28;20064;-65
2023/06/15 10:11:12;;;;;;;6.85;2.10;;;;;;;;;;5015582;28;20021;-64
2023/06/15 10:13:44;;;;;;;5.13;1.80;;;;;;;;;;5016603;28;20044;-64
2023/06/15 10:16:12;;;;;;;5.70;2.33;;;;;;;;;;4998895;28;20770;-64
2023/06/15 10:18:39;;;;;;;6.20;2.08;;;;;;;;;;5019392;28;20449;-65
2023/06/15 10:21:07;;;;;;;6.07;2.10;;;;;;;;;;5012650;28;20028;-65
2023/06/15 10:23:33;;;;;;;5.57;2.10;;;;;;;;;;5001885;28;20198;-64
2023/06/15 10:26:00;;;;;;;8.77;2.20;;;;;;;;;;4994839;28;20455;-64
2023/06/15 10:28:28;;;;;;;5.47;1.70;;;;;;;;;;5003231;28;20171;-64
2023/06/15 10:31:13;;;;;;;6.05;2.17;;;;;;;;;;5016269;28;20067;-65
2023/06/15 10:33:48;;;;;;;6.90;2.20;;;;;;;;;;5002874;28;20537;-64
2023/06/15 10:36:23;;;;;;;4.75;1.95;;;;;;;;;;5012524;28;20463;-65
2023/06/15 10:38:50;;;;;;;6.70;2.70;;;;;;;;;;5019377;28;20052;-65
2023/06/15 10:41:16;;;;;;;5.93;2.40;;;;;;;;;;5011644;28;20033;-65
2023/06/15 10:43:56;;;;;;;4.25;1.73;;;;;;;;;;5016096;28;20020;-65
2023/06/15 10:46:26;;;;;;;5.30;2.10;;;;;;;;;;5018795;28;20316;-65
2023/06/15 10:48:53;;;;;;;6.57;2.25;;;;;;;;;;5001341;28;20544;-64
2023/06/15 10:51:21;;;;;;;6.35;2.25;;;;;;;;;;5013576;28;20404;-64
2023/06/15 10:53:47;;;;;;;6.63;2.22;;;;;;;;;;5007329;28;20548;-67
2023/06/15 10:56:13;;;;;;;5.72;2.33;;;;;;;;;;5012781;28;20032;-65
2023/06/15 10:58:53;;;;;;;7.90;2.22;;;;;;;;;;5015883;28;20035;-65
2023/06/15 11:01:21;;;;;;;5.97;2.10;;;;;;;;;;5015493;28;20035;-63
2023/06/15 11:03:47;;;;;;;6.07;2.20;;;;;;;;;;4999363;28;20495;-63
2023/06/15 11:06:15;;;;;;;7.07;2.42;;;;;;;;;;5012269;28;20445;-62
2023/06/15 11:08:44;;;;;;;6.45;2.42;;;;;;;;;;5018496;28;20055;-68
2023/06/15 11:11:11;;;;;;;5.50;2.20;;;;;;;;;;5000964;28;20128;-69
2023/06/15 11:13:54;;;;;;;7.25;2.83;;;;;;;;;;5017034;28;20123;-68
2023/06/15 11:16:23;;;;;;;8.63;2.53;;;;;;;;;;5013991;28;20043;-68
2023/06/15 11:18:59;;;;;;;5.35;2.03;;;;;;;;;;5016194;28;20021;-67
2023/06/15 11:21:29;;;;;;;6.50;2.30;;;;;;;;;;5017098;28;20032;-67
2023/06/15 11:23:57;;;;;;;7.10;2.50;;;;;;;;;;5002415;28;20163;-67
2023/06/15 11:26:28;;;;;;;6.90;2.28;;;;;;;;;;5017084;28;20037;-67
2023/06/15 11:28:58;;;;;;;7.47;2.50;;;;;;;;;;4999785;28;20088;-69
2023/06/15 11:31:24;;;;;;;5.95;2.55;;;;;;;;;;5003498;28;20060;-70
2023/06/15 11:33:50;;;;;;;7.53;2.55;;;;;;;;;;5015981;28;20028;-67
2023/06/15 11:36:16;;;;;;;6.07;2.33;;;;;;;;;;5012868;28;23977;-68
2023/06/15 11:38:43;;;;;;;6.93;2.55;;;;;;;;;;5016215;28;20017;-66
2023/06/15 11:41:10;;;;;;;6.18;2.40;;;;;;;;;;5009962;28;20040;-67
2023/06/15 11:43:36;;;;;;;7.85;2.38;;;;;;;;;;5018754;28;20641;-70
2023/06/15 11:46:02;;;;;;;6.10;2.40;;;;;;;;;;4991658;28;20086;-68
2023/06/15 11:48:28;;;;;;;6.00;2.17;;;;;;;;;;5012426;28;20048;-68
2023/06/15 11:50:56;;;;;;;6.25;2.45;;;;;;;;;;5020342;28;20510;-68
2023/06/15 11:53:22;;;;;;;9.23;3.05;;;;;;;;;;5003446;28;20029;-68
2023/06/15 11:55:48;;;;;;;7.30;2.53;;;;;;;;;;5002572;28;20139;-68
2023/06/15 11:58:15;;;;;;;7.85;2.72;;;;;;;;;;5015498;28;20094;-66
2023/06/15 12:00:41;;;;;;;5.85;2.42;;;;;;;;;;5020448;28;20024;-68
2023/06/15 12:03:11;;;;;;;8.02;3.05;;;;;;;;;;5000139;28;20040;-67
2023/06/15 12:05:38;;;;;;;11.82;2.80;;;;;;;;;;5019369;28;20036;-68
2023/06/15 12:08:05;;;;;;;8.25;2.50;;;;;;;;;;4997991;28;20120;-68
2023/06/15 12:10:33;;;;;;;8.32;2.40;;;;;;;;;;5003711;28;20254;-67
2023/06/15 12:12:59;;;;;;;6.30;2.60;;;;;;;;;;5013527;28;20036;-68
2023/06/15 12:15:25;;;;;;;6.53;2.22;;;;;;;;;;5001098;28;20130;-68
2023/06/15 12:17:54;;;;;;;6.88;2.42;;;;;;;;;;5002867;28;20479;-68
2023/06/15 12:20:20;;;;;;;8.35;2.67;;;;;;;;;;5014585;28;20033;-67
2023/06/15 12:22:48;;;;;;;6.55;2.50;;;;;;;;;;5015948;28;20120;-67
2023/06/15 12:25:15;;;;;;;7.40;2.25;;;;;;;;;;4999587;28;20124;-68
2023/06/15 12:27:42;;;;;;;5.13;2.10;;;;;;;;;;5013993;28;20033;-67
2023/06/15 12:30:12;;;;;;;6.93;2.53;;;;;;;;;;5013147;28;20021;-68
2023/06/15 12:32:44;;;;;;;6.18;2.53;;;;;;;;;;5015757;28;20075;-67
2023/06/15 12:35:31;;;;;;;5.88;2.13;;;;;;;;;;5013099;28;20029;-69
2023/06/15 12:37:57;;;;;;;6.40;2.63;;;;;;;;;;5013233;28;20091;-67
2023/06/15 12:40:23;;;;;;;7.90;2.50;;;;;;;;;;5003074;28;20029;-68
2023/06/15 12:43:06;;;;;;;8.30;2.40;;;;;;;;;;5016363;28;20034;-68
2023/06/15 12:45:32;;;;;;;5.82;2.10;;;;;;;;;;5018504;28;20036;-68
2023/06/15 12:47:59;;;;;;;6.13;2.38;;;;;;;;;;5014876;28;20028;-69
2023/06/15 12:50:26;;;;;;;5.65;2.10;;;;;;;;;;5015213;28;20029;-67
2023/06/15 12:52:58;;;;;;;6.25;2.50;;;;;;;;;;5002856;28;20120;-68
2023/06/15 12:55:25;;;;;;;6.07;2.40;;;;;;;;;;5018944;28;20136;-67
2023/06/15 12:57:51;;;;;;;6.60;2.47;;;;;;;;;;5002630;28;20033;-67
2023/06/15 13:00:19;;;;;;;12.13;2.50;;;;;;;;;;5015116;28;20222;-67
2023/06/15 13:02:45;;;;;;;8.73;2.85;;;;;;;;;;5013919;28;20487;-67
2023/06/15 13:05:11;;;;;;;7.10;2.88;;;;;;;;;;4997472;28;20361;-67
2023/06/15 13:07:38;;;;;;;7.78;2.70;;;;;;;;;;5004327;28;20131;-67
2023/06/15 13:10:05;;;;;;;8.02;3.05;;;;;;;;;;4999144;28;20030;-68
2023/06/15 13:12:32;;;;;;;7.93;2.67;;;;;;;;;;5016299;28;20029;-68
2023/06/15 13:14:58;;;;;;;8.65;2.80;;;;;;;;;;4998654;28;20132;-68
2023/06/15 13:17:24;;;;;;;9.25;3.20;;;;;;;;;;5015474;28;20555;-68
2023/06/15 13:19:51;;;;;;;8.15;3.40;;;;;;;;;;5006750;28;20266;-68
2023/06/15 13:22:17;;;;;;;7.88;2.90;;;;;;;;;;5012578;28;20041;-68
2023/06/15 13:24:43;;;;;;;8.80;2.97;;;;;;;;;;5019580;28;20033;-68
2023/06/15 13:27:11;;;;;;;8.10;2.63;;;;;;;;;;5013415;28;20069;-69
2023/06/15 13:29:37;;;;;;;7.15;3.10;;;;;;;;;;5011480;28;20102;-68
2023/06/15 13:32:05;;;;;;;7.75;3.20;;;;;;;;;;5012390;28;20114;-68
2023/06/15 13:34:31;;;;;;;7.30;2.83;;;;;;;;;;5019301;28;20479;-68
2023/06/15 13:36:57;;;;;;;7.47;2.90;;;;;;;;;;5014285;28;20328;-67
2023/06/15 13:39:24;;;;;;;6.40;2.67;;;;;;;;;;5016102;28;20025;-67
2023/06/15 13:41:50;;;;;;;7.68;3.10;;;;;;;;;;5002090;28;20198;-68
2023/06/15 13:44:16;;;;;;;6.78;2.80;;;;;;;;;;5012318;28;20839;-67
2023/06/15 13:46:42;;;;;;;9.52;3.08;;;;;;;;;;5018019;28;20037;-68
2023/06/15 13:49:09;;;;;;;8.48;3.17;;;;;;;;;;5015169;28;20043;-68
2023/06/15 13:51:36;;;;;;;9.05;3.00;;;;;;;;;;5017323;28;20033;-68
2023/06/15 13:54:03;;;;;;;7.60;2.83;;;;;;;;;;5013797;28;20032;-67
2023/06/15 13:56:29;;;;;;;8.52;3.25;;;;;;;;;;5002043;28;20493;-67
2023/06/15 13:58:56;;;;;;;7.57;2.83;;;;;;;;;;5002630;28;20378;-68
2023/06/15 14:01:25;;;;;;;9.32;2.85;;;;;;;;;;5018845;28;20025;-68
2023/06/15 14:03:51;;;;;;;9.25;3.25;;;;;;;;;;5018174;28;20049;-67
2023/06/15 14:06:18;;;;;;;10.15;3.20;;;;;;;;;;5012981;28;20112;-66
2023/06/15 14:08:44;;;;;;;8.73;2.90;;;;;;;;;;5018737;28;20037;-68
2023/06/15 14:11:11;;;;;;;13.98;3.13;;;;;;;;;;5011941;28;20029;-68
2023/06/15 14:13:37;;;;;;;10.27;3.00;;;;;;;;;;5016990;28;20028;-68
2023/06/15 14:16:03;;;;;;;9.82;3.35;;;;;;;;;;5010338;28;20179;-68
2023/06/15 14:18:29;;;;;;;6.43;2.50;;;;;;;;;;5017542;28;20347;-68
2023/06/15 14:20:55;;;;;;;7.60;2.70;;;;;;;;;;5014371;28;20024;-67
2023/06/15 14:23:21;;;;;;;8.93;2.80;;;;;;;;;;4996230;28;20036;-68
2023/06/15 14:25:48;;;;;;;6.82;2.50;;;;;;;;;;5001931;28;20059;-67
2023/06/15 14:28:14;;;;;;;7.85;3.10;;;;;;;;;;5008241;28;20029;-67
2023/06/15 14:30:40;;;;;;;6.93;2.85;;;;;;;;;;5017107;28;20273;-67
2023/06/15 14:33:06;;;;;;;7.53;2.80;;;;;;;;;;5013902;28;20290;-67
2023/06/15 14:35:33;;;;;;;8.50;3.00;;;;;;;;;;5014509;28;20187;-68
2023/06/15 14:37:59;;;;;;;8.05;2.70;;;;;;;;;;5012531;28;20440;-67
2023/06/15 14:40:25;;;;;;;7.40;2.95;;;;;;;;;;4998025;28;20029;-62